sensor_id;sensor_type;location;lat;lon;timestamp;P1;durP1;ratioP1;P2;durP2;ratioP2
48203;SDS011;33994;50.998;5.864;2023-05-20T00:00:46;4.43;;;2.45;;
48203;SDS011;33994;50.998;5.864;2023-05-20T00:03:49;4.68;;;2.20;;
48203;SDS011;33994;50.998;5.864;2023-05-20T00:06:52;5.72;;;2.67;;
48203;SDS011;33994;50.998;5.864;2023-05-20T00:09:55;5.72;;;2.60;;
48203;SDS011;33994;50.998;5.864;2023-05-20T00:12:58;6.00;;;2.85;;
48203;SDS011;33994;50.998;5.864;2023-05-20T00:16:03;7.18;;;3.08;;
48203;SDS011;33994;50.998;5.864;2023-05-20T00:19:07;5.85;;;2.88;;
48203;SDS011;33994;50.998;5.864;2023-05-20T00:22:10;9.68;;;2.92;;
48203;SDS011;33994;50.998;5.864;2023-05-20T00:25:13;6.88;;;2.97;;
48203;SDS011;33994;50.998;5.864;2023-05-20T00:28:16;6.05;;;3.30;;
48203;SDS011;33994;50.998;5.864;2023-05-20T00:31:21;9.77;;;3.22;;
48203;SDS011;33994;50.998;5.864;2023-05-20T00:34:24;5.70;;;3.10;;
48203;SDS011;33994;50.998;5.864;2023-05-20T00:37:27;9.38;;;2.60;;
48203;SDS011;33994;50.998;5.864;2023-05-20T00:40:30;6.03;;;2.60;;
48203;SDS011;33994;50.998;5.864;2023-05-20T00:43:34;7.00;;;3.03;;
48203;SDS011;33994;50.998;5.864;2023-05-20T00:46:38;6.00;;;2.78;;
48203;SDS011;33994;50.998;5.864;2023-05-20T00:49:42;9.15;;;2.67;;
48203;SDS011;33994;50.998;5.864;2023-05-20T00:52:45;6.47;;;2.80;;
48203;SDS011;33994;50.998;5.864;2023-05-20T00:55:48;5.85;;;3.35;;
48203;SDS011;33994;50.998;5.864;2023-05-20T00:58:51;6.22;;;3.20;;
48203;SDS011;33994;50.998;5.864;2023-05-20T01:01:56;8.32;;;3.20;;
48203;SDS011;33994;50.998;5.864;2023-05-20T01:04:59;6.63;;;3.20;;
48203;SDS011;33994;50.998;5.864;2023-05-20T01:08:02;5.25;;;3.03;;
48203;SDS011;33994;50.998;5.864;2023-05-20T01:11:08;14.02;;;3.13;;
48203;SDS011;33994;50.998;5.864;2023-05-20T01:14:16;6.60;;;3.33;;
48203;SDS011;33994;50.998;5.864;2023-05-20T01:17:21;6.18;;;2.88;;
48203;SDS011;33994;50.998;5.864;2023-05-20T01:20:29;8.30;;;3.30;;
48203;SDS011;33994;50.998;5.864;2023-05-20T01:23:36;5.00;;;2.50;;
48203;SDS011;33994;50.998;5.864;2023-05-20T01:26:40;6.28;;;3.17;;
48203;SDS011;33994;50.998;5.864;2023-05-20T01:29:43;6.60;;;3.13;;
48203;SDS011;33994;50.998;5.864;2023-05-20T01:32:47;6.85;;;2.90;;
48203;SDS011;33994;50.998;5.864;2023-05-20T01:35:52;7.07;;;2.72;;
48203;SDS011;33994;50.998;5.864;2023-05-20T01:38:56;6.57;;;2.90;;
48203;SDS011;33994;50.998;5.864;2023-05-20T01:42:00;8.88;;;2.80;;
48203;SDS011;33994;50.998;5.864;2023-05-20T01:45:05;5.72;;;2.80;;
48203;SDS011;33994;50.998;5.864;2023-05-20T01:48:09;8.30;;;2.75;;
48203;SDS011;33994;50.998;5.864;2023-05-20T01:51:13;6.57;;;3.03;;
48203;SDS011;33994;50.998;5.864;2023-05-20T01:54:18;5.85;;;3.38;;
48203;SDS011;33994;50.998;5.864;2023-05-20T01:57:21;4.97;;;2.72;;
48203;SDS011;33994;50.998;5.864;2023-05-20T02:00:25;5.93;;;2.70;;
48203;SDS011;33994;50.998;5.864;2023-05-20T02:03:28;5.55;;;2.95;;
48203;SDS011;33994;50.998;5.864;2023-05-20T02:06:31;8.15;;;2.85;;
48203;SDS011;33994;50.998;5.864;2023-05-20T02:09:36;6.75;;;2.90;;
48203;SDS011;33994;50.998;5.864;2023-05-20T02:12:39;6.97;;;2.80;;
48203;SDS011;33994;50.998;5.864;2023-05-20T02:15:42;5.22;;;2.97;;
48203;SDS011;33994;50.998;5.864;2023-05-20T02:18:46;4.70;;;2.42;;
48203;SDS011;33994;50.998;5.864;2023-05-20T02:21:49;6.35;;;2.58;;
48203;SDS011;33994;50.998;5.864;2023-05-20T02:24:54;4.28;;;2.50;;
48203;SDS011;33994;50.998;5.864;2023-05-20T02:27:57;7.55;;;2.78;;
48203;SDS011;33994;50.998;5.864;2023-05-20T02:31:00;6.43;;;3.85;;
48203;SDS011;33994;50.998;5.864;2023-05-20T02:34:04;5.65;;;3.15;;
48203;SDS011;33994;50.998;5.864;2023-05-20T02:37:07;5.70;;;3.10;;
48203;SDS011;33994;50.998;5.864;2023-05-20T02:40:12;5.80;;;2.35;;
48203;SDS011;33994;50.998;5.864;2023-05-20T02:43:14;5.15;;;2.72;;
48203;SDS011;33994;50.998;5.864;2023-05-20T02:46:18;6.10;;;2.70;;
48203;SDS011;33994;50.998;5.864;2023-05-20T02:49:21;4.68;;;2.88;;
48203;SDS011;33994;50.998;5.864;2023-05-20T02:52:24;3.35;;;2.50;;
48203;SDS011;33994;50.998;5.864;2023-05-20T02:55:29;5.88;;;2.85;;
48203;SDS011;33994;50.998;5.864;2023-05-20T02:58:35;5.90;;;3.55;;
48203;SDS011;33994;50.998;5.864;2023-05-20T03:01:38;7.50;;;2.95;;
48203;SDS011;33994;50.998;5.864;2023-05-20T03:04:41;8.07;;;2.72;;
48203;SDS011;33994;50.998;5.864;2023-05-20T03:07:45;7.22;;;3.03;;
48203;SDS011;33994;50.998;5.864;2023-05-20T03:10:49;7.22;;;2.72;;
48203;SDS011;33994;50.998;5.864;2023-05-20T03:13:53;3.92;;;2.67;;
48203;SDS011;33994;50.998;5.864;2023-05-20T03:16:56;5.50;;;2.97;;
48203;SDS011;33994;50.998;5.864;2023-05-20T03:19:59;6.15;;;2.55;;
48203;SDS011;33994;50.998;5.864;2023-05-20T03:23:03;4.82;;;2.42;;
48203;SDS011;33994;50.998;5.864;2023-05-20T03:26:08;4.35;;;2.80;;
48203;SDS011;33994;50.998;5.864;2023-05-20T03:29:11;4.38;;;2.60;;
48203;SDS011;33994;50.998;5.864;2023-05-20T03:32:14;4.97;;;2.80;;
48203;SDS011;33994;50.998;5.864;2023-05-20T03:35:18;6.00;;;3.22;;
48203;SDS011;33994;50.998;5.864;2023-05-20T03:38:21;7.63;;;3.15;;
48203;SDS011;33994;50.998;5.864;2023-05-20T03:41:25;7.03;;;3.10;;
48203;SDS011;33994;50.998;5.864;2023-05-20T03:44:28;8.40;;;3.22;;
48203;SDS011;33994;50.998;5.864;2023-05-20T03:47:32;9.00;;;3.22;;
48203;SDS011;33994;50.998;5.864;2023-05-20T03:50:35;6.57;;;2.80;;
48203;SDS011;33994;50.998;5.864;2023-05-20T03:53:38;5.22;;;3.08;;
48203;SDS011;33994;50.998;5.864;2023-05-20T03:56:43;7.80;;;3.72;;
48203;SDS011;33994;50.998;5.864;2023-05-20T03:59:46;6.40;;;3.15;;
48203;SDS011;33994;50.998;5.864;2023-05-20T04:02:49;12.35;;;3.42;;
48203;SDS011;33994;50.998;5.864;2023-05-20T04:05:52;6.13;;;3.05;;
48203;SDS011;33994;50.998;5.864;2023-05-20T04:08:55;7.97;;;3.20;;
48203;SDS011;33994;50.998;5.864;2023-05-20T04:12:00;6.05;;;2.83;;
48203;SDS011;33994;50.998;5.864;2023-05-20T04:15:04;6.82;;;3.20;;
48203;SDS011;33994;50.998;5.864;2023-05-20T04:18:07;6.35;;;3.03;;
48203;SDS011;33994;50.998;5.864;2023-05-20T04:21:11;8.90;;;3.05;;
48203;SDS011;33994;50.998;5.864;2023-05-20T04:24:14;7.30;;;3.28;;
48203;SDS011;33994;50.998;5.864;2023-05-20T04:27:18;7.15;;;3.50;;
48203;SDS011;33994;50.998;5.864;2023-05-20T04:30:22;10.20;;;3.47;;
48203;SDS011;33994;50.998;5.864;2023-05-20T04:33:25;6.20;;;3.40;;
48203;SDS011;33994;50.998;5.864;2023-05-20T04:36:29;8.27;;;3.53;;
48203;SDS011;33994;50.998;5.864;2023-05-20T04:39:32;10.70;;;4.35;;
48203;SDS011;33994;50.998;5.864;2023-05-20T04:42:36;5.18;;;3.20;;
48203;SDS011;33994;50.998;5.864;2023-05-20T04:45:39;6.82;;;3.55;;
48203;SDS011;33994;50.998;5.864;2023-05-20T04:48:43;7.50;;;3.47;;
48203;SDS011;33994;50.998;5.864;2023-05-20T04:51:46;8.05;;;4.45;;
48203;SDS011;33994;50.998;5.864;2023-05-20T04:54:49;9.07;;;3.70;;
48203;SDS011;33994;50.998;5.864;2023-05-20T04:57:54;9.68;;;4.03;;
48203;SDS011;33994;50.998;5.864;2023-05-20T05:00:57;7.47;;;3.95;;
48203;SDS011;33994;50.998;5.864;2023-05-20T05:04:00;9.75;;;4.43;;
48203;SDS011;33994;50.998;5.864;2023-05-20T05:07:03;8.82;;;4.03;;
48203;SDS011;33994;50.998;5.864;2023-05-20T05:10:07;8.18;;;3.42;;
48203;SDS011;33994;50.998;5.864;2023-05-20T05:13:12;9.68;;;4.15;;
48203;SDS011;33994;50.998;5.864;2023-05-20T05:16:15;6.88;;;3.85;;
48203;SDS011;33994;50.998;5.864;2023-05-20T05:19:18;9.75;;;3.70;;
48203;SDS011;33994;50.998;5.864;2023-05-20T05:22:22;8.48;;;4.25;;
48203;SDS011;33994;50.998;5.864;2023-05-20T05:25:25;7.63;;;3.40;;
48203;SDS011;33994;50.998;5.864;2023-05-20T05:28:29;7.45;;;4.60;;
48203;SDS011;33994;50.998;5.864;2023-05-20T05:31:32;9.75;;;4.00;;
48203;SDS011;33994;50.998;5.864;2023-05-20T05:34:36;6.65;;;3.78;;
48203;SDS011;33994;50.998;5.864;2023-05-20T05:37:39;9.18;;;3.92;;
48203;SDS011;33994;50.998;5.864;2023-05-20T05:40:42;6.32;;;4.07;;
48203;SDS011;33994;50.998;5.864;2023-05-20T05:43:46;12.75;;;4.13;;
48203;SDS011;33994;50.998;5.864;2023-05-20T05:46:50;6.88;;;3.60;;
48203;SDS011;33994;50.998;5.864;2023-05-20T05:49:53;8.60;;;4.10;;
48203;SDS011;33994;50.998;5.864;2023-05-20T05:52:56;6.82;;;3.72;;
48203;SDS011;33994;50.998;5.864;2023-05-20T05:55:59;7.80;;;3.40;;
48203;SDS011;33994;50.998;5.864;2023-05-20T05:59:04;7.30;;;3.88;;
48203;SDS011;33994;50.998;5.864;2023-05-20T06:02:07;7.22;;;3.40;;
48203;SDS011;33994;50.998;5.864;2023-05-20T06:05:10;5.50;;;3.45;;
48203;SDS011;33994;50.998;5.864;2023-05-20T06:08:13;9.05;;;4.43;;
48203;SDS011;33994;50.998;5.864;2023-05-20T06:11:16;9.60;;;3.92;;
48203;SDS011;33994;50.998;5.864;2023-05-20T06:14:21;10.48;;;3.25;;
48203;SDS011;33994;50.998;5.864;2023-05-20T06:17:23;6.20;;;3.40;;
48203;SDS011;33994;50.998;5.864;2023-05-20T06:20:27;8.05;;;4.57;;
48203;SDS011;33994;50.998;5.864;2023-05-20T06:23:30;7.25;;;3.40;;
48203;SDS011;33994;50.998;5.864;2023-05-20T06:26:33;8.32;;;3.70;;
48203;SDS011;33994;50.998;5.864;2023-05-20T06:29:37;5.30;;;2.92;;
48203;SDS011;33994;50.998;5.864;2023-05-20T06:32:41;8.02;;;3.42;;
48203;SDS011;33994;50.998;5.864;2023-05-20T06:35:44;5.72;;;3.63;;
48203;SDS011;33994;50.998;5.864;2023-05-20T06:38:47;9.13;;;3.78;;
48203;SDS011;33994;50.998;5.864;2023-05-20T06:41:51;5.50;;;3.00;;
48203;SDS011;33994;50.998;5.864;2023-05-20T06:44:55;7.03;;;3.42;;
48203;SDS011;33994;50.998;5.864;2023-05-20T06:47:59;14.43;;;3.13;;
48203;SDS011;33994;50.998;5.864;2023-05-20T06:51:02;9.57;;;2.70;;
48203;SDS011;33994;50.998;5.864;2023-05-20T06:54:08;5.30;;;3.10;;
48203;SDS011;33994;50.998;5.864;2023-05-20T06:57:11;7.50;;;3.13;;
48203;SDS011;33994;50.998;5.864;2023-05-20T07:00:16;6.90;;;3.28;;
48203;SDS011;33994;50.998;5.864;2023-05-20T07:03:19;13.35;;;3.40;;
48203;SDS011;33994;50.998;5.864;2023-05-20T07:06:22;6.50;;;3.63;;
48203;SDS011;33994;50.998;5.864;2023-05-20T07:09:25;5.30;;;3.05;;
48203;SDS011;33994;50.998;5.864;2023-05-20T07:12:29;5.60;;;3.10;;
48203;SDS011;33994;50.998;5.864;2023-05-20T07:15:33;7.28;;;3.30;;
48203;SDS011;33994;50.998;5.864;2023-05-20T07:18:36;7.97;;;3.78;;
48203;SDS011;33994;50.998;5.864;2023-05-20T07:21:40;6.20;;;3.55;;
48203;SDS011;33994;50.998;5.864;2023-05-20T07:24:44;5.30;;;3.30;;
48203;SDS011;33994;50.998;5.864;2023-05-20T07:27:47;7.85;;;3.67;;
48203;SDS011;33994;50.998;5.864;2023-05-20T07:30:52;5.65;;;2.83;;
48203;SDS011;33994;50.998;5.864;2023-05-20T07:33:55;6.45;;;3.60;;
48203;SDS011;33994;50.998;5.864;2023-05-20T07:36:58;5.53;;;3.10;;
48203;SDS011;33994;50.998;5.864;2023-05-20T07:40:01;7.47;;;3.72;;
48203;SDS011;33994;50.998;5.864;2023-05-20T07:43:05;5.80;;;3.35;;
48203;SDS011;33994;50.998;5.864;2023-05-20T07:46:10;8.95;;;3.85;;
48203;SDS011;33994;50.998;5.864;2023-05-20T07:49:12;9.65;;;3.55;;
48203;SDS011;33994;50.998;5.864;2023-05-20T07:52:16;6.15;;;3.90;;
48203;SDS011;33994;50.998;5.864;2023-05-20T07:55:19;7.68;;;3.60;;
48203;SDS011;33994;50.998;5.864;2023-05-20T07:58:22;6.18;;;3.60;;
48203;SDS011;33994;50.998;5.864;2023-05-20T08:01:27;8.38;;;3.22;;
48203;SDS011;33994;50.998;5.864;2023-05-20T08:04:30;6.18;;;3.70;;
48203;SDS011;33994;50.998;5.864;2023-05-20T08:07:33;11.88;;;3.90;;
48203;SDS011;33994;50.998;5.864;2023-05-20T08:10:37;6.78;;;3.83;;
48203;SDS011;33994;50.998;5.864;2023-05-20T08:13:40;5.00;;;3.30;;
48203;SDS011;33994;50.998;5.864;2023-05-20T08:16:45;8.45;;;3.63;;
48203;SDS011;33994;50.998;5.864;2023-05-20T08:19:48;9.05;;;2.95;;
48203;SDS011;33994;50.998;5.864;2023-05-20T08:22:51;6.07;;;2.72;;
48203;SDS011;33994;50.998;5.864;2023-05-20T08:25:54;4.07;;;2.72;;
48203;SDS011;33994;50.998;5.864;2023-05-20T08:28:58;3.20;;;2.47;;
48203;SDS011;33994;50.998;5.864;2023-05-20T08:32:02;5.80;;;3.15;;
48203;SDS011;33994;50.998;5.864;2023-05-20T08:35:06;8.77;;;2.97;;
48203;SDS011;33994;50.998;5.864;2023-05-20T08:38:09;12.43;;;4.85;;
48203;SDS011;33994;50.998;5.864;2023-05-20T08:41:12;7.43;;;3.13;;
48203;SDS011;33994;50.998;5.864;2023-05-20T08:44:16;4.22;;;3.03;;
48203;SDS011;33994;50.998;5.864;2023-05-20T08:47:22;3.65;;;2.92;;
48203;SDS011;33994;50.998;5.864;2023-05-20T08:50:25;8.82;;;3.20;;
48203;SDS011;33994;50.998;5.864;2023-05-20T08:53:29;6.10;;;3.78;;
48203;SDS011;33994;50.998;5.864;2023-05-20T08:56:32;6.80;;;3.65;;
48203;SDS011;33994;50.998;5.864;2023-05-20T08:59:35;4.68;;;3.05;;
48203;SDS011;33994;50.998;5.864;2023-05-20T09:02:40;5.03;;;3.20;;
48203;SDS011;33994;50.998;5.864;2023-05-20T09:05:43;3.72;;;2.92;;
48203;SDS011;33994;50.998;5.864;2023-05-20T09:08:47;6.90;;;3.63;;
48203;SDS011;33994;50.998;5.864;2023-05-20T09:11:51;7.30;;;2.83;;
48203;SDS011;33994;50.998;5.864;2023-05-20T09:14:54;7.93;;;3.10;;
48203;SDS011;33994;50.998;5.864;2023-05-20T09:18:00;5.40;;;2.83;;
48203;SDS011;33994;50.998;5.864;2023-05-20T09:21:04;8.55;;;2.97;;
48203;SDS011;33994;50.998;5.864;2023-05-20T09:24:07;5.32;;;3.20;;
48203;SDS011;33994;50.998;5.864;2023-05-20T09:27:11;5.40;;;3.25;;
48203;SDS011;33994;50.998;5.864;2023-05-20T09:30:17;6.18;;;3.00;;
48203;SDS011;33994;50.998;5.864;2023-05-20T09:33:25;5.13;;;3.30;;
48203;SDS011;33994;50.998;5.864;2023-05-20T09:36:29;10.40;;;3.72;;
48203;SDS011;33994;50.998;5.864;2023-05-20T09:39:38;7.68;;;3.67;;
48203;SDS011;33994;50.998;5.864;2023-05-20T09:42:49;7.82;;;3.80;;
48203;SDS011;33994;50.998;5.864;2023-05-20T09:45:55;5.43;;;3.55;;
48203;SDS011;33994;50.998;5.864;2023-05-20T09:49:00;5.75;;;3.55;;
48203;SDS011;33994;50.998;5.864;2023-05-20T09:52:04;7.00;;;3.33;;
48203;SDS011;33994;50.998;5.864;2023-05-20T09:55:08;6.95;;;3.40;;
48203;SDS011;33994;50.998;5.864;2023-05-20T09:58:12;6.55;;;4.10;;
48203;SDS011;33994;50.998;5.864;2023-05-20T10:01:15;8.00;;;4.00;;
48203;SDS011;33994;50.998;5.864;2023-05-20T10:04:20;9.23;;;3.88;;
48203;SDS011;33994;50.998;5.864;2023-05-20T10:10:39;5.93;;;3.80;;
48203;SDS011;33994;50.998;5.864;2023-05-20T10:13:59;6.80;;;3.17;;
48203;SDS011;33994;50.998;5.864;2023-05-20T10:17:12;6.38;;;3.40;;
48203;SDS011;33994;50.998;5.864;2023-05-20T10:20:20;8.35;;;3.90;;
48203;SDS011;33994;50.998;5.864;2023-05-20T10:23:28;8.63;;;3.90;;
48203;SDS011;33994;50.998;5.864;2023-05-20T10:29:43;6.80;;;4.05;;
48203;SDS011;33994;50.998;5.864;2023-05-20T10:32:48;8.63;;;4.50;;
48203;SDS011;33994;50.998;5.864;2023-05-20T10:35:56;4.90;;;3.95;;
48203;SDS011;33994;50.998;5.864;2023-05-20T10:39:00;7.70;;;4.20;;
48203;SDS011;33994;50.998;5.864;2023-05-20T10:42:06;6.25;;;4.20;;
48203;SDS011;33994;50.998;5.864;2023-05-20T10:45:09;6.45;;;3.97;;
48203;SDS011;33994;50.998;5.864;2023-05-20T10:48:18;9.63;;;5.05;;
48203;SDS011;33994;50.998;5.864;2023-05-20T10:51:24;6.68;;;4.45;;
48203;SDS011;33994;50.998;5.864;2023-05-20T10:54:34;9.50;;;4.55;;
48203;SDS011;33994;50.998;5.864;2023-05-20T10:57:37;6.13;;;4.40;;
48203;SDS011;33994;50.998;5.864;2023-05-20T11:00:41;6.47;;;4.10;;
48203;SDS011;33994;50.998;5.864;2023-05-20T11:03:45;9.85;;;4.60;;
48203;SDS011;33994;50.998;5.864;2023-05-20T11:06:50;9.88;;;4.57;;
48203;SDS011;33994;50.998;5.864;2023-05-20T11:09:54;7.05;;;4.15;;
48203;SDS011;33994;50.998;5.864;2023-05-20T11:12:57;9.50;;;4.70;;
48203;SDS011;33994;50.998;5.864;2023-05-20T11:16:00;6.70;;;4.50;;
48203;SDS011;33994;50.998;5.864;2023-05-20T11:19:03;6.22;;;4.80;;
48203;SDS011;33994;50.998;5.864;2023-05-20T11:22:10;6.50;;;4.72;;
48203;SDS011;33994;50.998;5.864;2023-05-20T11:25:13;8.48;;;4.93;;
48203;SDS011;33994;50.998;5.864;2023-05-20T11:28:17;8.20;;;5.68;;
48203;SDS011;33994;50.998;5.864;2023-05-20T11:31:21;8.50;;;5.25;;
48203;SDS011;33994;50.998;5.864;2023-05-20T11:34:24;6.95;;;5.13;;
48203;SDS011;33994;50.998;5.864;2023-05-20T11:37:29;14.02;;;6.10;;
48203;SDS011;33994;50.998;5.864;2023-05-20T11:40:32;7.88;;;4.68;;
48203;SDS011;33994;50.998;5.864;2023-05-20T11:43:35;6.35;;;4.63;;
48203;SDS011;33994;50.998;5.864;2023-05-20T11:46:42;7.05;;;4.80;;
48203;SDS011;33994;50.998;5.864;2023-05-20T11:49:48;7.45;;;5.00;;
48203;SDS011;33994;50.998;5.864;2023-05-20T11:52:55;8.70;;;5.50;;
48203;SDS011;33994;50.998;5.864;2023-05-20T11:55:59;8.35;;;5.00;;
48203;SDS011;33994;50.998;5.864;2023-05-20T11:59:03;8.88;;;4.78;;
48203;SDS011;33994;50.998;5.864;2023-05-20T12:02:07;8.85;;;4.93;;
48203;SDS011;33994;50.998;5.864;2023-05-20T12:05:11;7.93;;;5.43;;
48203;SDS011;33994;50.998;5.864;2023-05-20T12:08:15;7.40;;;5.35;;
48203;SDS011;33994;50.998;5.864;2023-05-20T12:11:18;8.98;;;5.82;;
48203;SDS011;33994;50.998;5.864;2023-05-20T12:14:22;8.95;;;5.47;;
48203;SDS011;33994;50.998;5.864;2023-05-20T12:17:25;7.68;;;4.90;;
48203;SDS011;33994;50.998;5.864;2023-05-20T12:20:28;8.20;;;5.13;;
48203;SDS011;33994;50.998;5.864;2023-05-20T12:23:33;6.40;;;4.53;;
48203;SDS011;33994;50.998;5.864;2023-05-20T12:26:36;8.10;;;5.07;;
48203;SDS011;33994;50.998;5.864;2023-05-20T12:29:39;9.65;;;5.43;;
48203;SDS011;33994;50.998;5.864;2023-05-20T12:32:43;8.05;;;5.40;;
48203;SDS011;33994;50.998;5.864;2023-05-20T12:35:46;10.85;;;6.25;;
48203;SDS011;33994;50.998;5.864;2023-05-20T12:38:51;8.35;;;5.10;;
48203;SDS011;33994;50.998;5.864;2023-05-20T12:41:54;10.88;;;5.90;;
48203;SDS011;33994;50.998;5.864;2023-05-20T12:44:57;9.93;;;5.18;;
48203;SDS011;33994;50.998;5.864;2023-05-20T12:48:00;9.02;;;5.03;;
48203;SDS011;33994;50.998;5.864;2023-05-20T12:51:04;7.00;;;4.85;;
48203;SDS011;33994;50.998;5.864;2023-05-20T12:54:09;9.35;;;5.53;;
48203;SDS011;33994;50.998;5.864;2023-05-20T12:57:12;8.80;;;5.85;;
48203;SDS011;33994;50.998;5.864;2023-05-20T13:00:15;7.82;;;5.03;;
48203;SDS011;33994;50.998;5.864;2023-05-20T13:03:19;8.25;;;5.15;;
48203;SDS011;33994;50.998;5.864;2023-05-20T13:06:22;9.68;;;5.78;;
48203;SDS011;33994;50.998;5.864;2023-05-20T13:09:27;6.97;;;5.13;;
48203;SDS011;33994;50.998;5.864;2023-05-20T13:12:30;11.30;;;6.18;;
48203;SDS011;33994;50.998;5.864;2023-05-20T13:15:33;8.65;;;5.15;;
48203;SDS011;33994;50.998;5.864;2023-05-20T13:18:37;7.70;;;5.47;;
48203;SDS011;33994;50.998;5.864;2023-05-20T13:21:40;8.25;;;5.22;;
48203;SDS011;33994;50.998;5.864;2023-05-20T13:24:44;9.85;;;5.53;;
48203;SDS011;33994;50.998;5.864;2023-05-20T13:27:47;15.45;;;6.10;;
48203;SDS011;33994;50.998;5.864;2023-05-20T13:30:51;9.07;;;6.05;;
48203;SDS011;33994;50.998;5.864;2023-05-20T13:33:54;10.45;;;5.90;;
48203;SDS011;33994;50.998;5.864;2023-05-20T13:36:57;10.70;;;5.20;;
48203;SDS011;33994;50.998;5.864;2023-05-20T13:40:02;11.73;;;5.20;;
48203;SDS011;33994;50.998;5.864;2023-05-20T13:43:05;7.85;;;5.30;;
48203;SDS011;33994;50.998;5.864;2023-05-20T13:46:08;8.82;;;5.43;;
48203;SDS011;33994;50.998;5.864;2023-05-20T13:49:12;6.55;;;4.85;;
48203;SDS011;33994;50.998;5.864;2023-05-20T13:52:16;13.60;;;5.28;;
48203;SDS011;33994;50.998;5.864;2023-05-20T13:55:20;12.85;;;5.57;;
48203;SDS011;33994;50.998;5.864;2023-05-20T13:58:23;7.80;;;5.10;;
48203;SDS011;33994;50.998;5.864;2023-05-20T14:01:27;6.70;;;4.90;;
48203;SDS011;33994;50.998;5.864;2023-05-20T14:04:32;5.75;;;4.78;;
48203;SDS011;33994;50.998;5.864;2023-05-20T14:07:35;8.25;;;5.80;;
48203;SDS011;33994;50.998;5.864;2023-05-20T14:10:40;7.00;;;5.18;;
48203;SDS011;33994;50.998;5.864;2023-05-20T14:13:43;10.93;;;6.35;;
48203;SDS011;33994;50.998;5.864;2023-05-20T14:16:46;7.22;;;5.20;;
48203;SDS011;33994;50.998;5.864;2023-05-20T14:19:49;9.75;;;5.57;;
48203;SDS011;33994;50.998;5.864;2023-05-20T14:22:52;15.75;;;5.90;;
48203;SDS011;33994;50.998;5.864;2023-05-20T14:25:57;7.55;;;5.25;;
48203;SDS011;33994;50.998;5.864;2023-05-20T14:29:00;8.00;;;5.18;;
48203;SDS011;33994;50.998;5.864;2023-05-20T14:32:04;7.35;;;5.47;;
48203;SDS011;33994;50.998;5.864;2023-05-20T14:35:07;8.65;;;5.50;;
48203;SDS011;33994;50.998;5.864;2023-05-20T14:38:10;8.35;;;5.80;;
48203;SDS011;33994;50.998;5.864;2023-05-20T14:41:15;7.90;;;5.43;;
48203;SDS011;33994;50.998;5.864;2023-05-20T14:44:18;11.38;;;5.55;;
48203;SDS011;33994;50.998;5.864;2023-05-20T14:47:21;8.68;;;5.95;;
48203;SDS011;33994;50.998;5.864;2023-05-20T14:50:24;11.15;;;6.05;;
48203;SDS011;33994;50.998;5.864;2023-05-20T14:53:27;10.50;;;6.55;;
48203;SDS011;33994;50.998;5.864;2023-05-20T14:56:32;10.07;;;6.07;;
48203;SDS011;33994;50.998;5.864;2023-05-20T14:59:35;7.03;;;5.47;;
48203;SDS011;33994;50.998;5.864;2023-05-20T15:02:38;9.80;;;5.47;;
48203;SDS011;33994;50.998;5.864;2023-05-20T15:05:41;13.32;;;6.47;;
48203;SDS011;33994;50.998;5.864;2023-05-20T15:08:45;12.95;;;6.03;;
48203;SDS011;33994;50.998;5.864;2023-05-20T15:11:49;8.65;;;5.65;;
48203;SDS011;33994;50.998;5.864;2023-05-20T15:14:52;9.05;;;5.90;;
48203;SDS011;33994;50.998;5.864;2023-05-20T15:17:56;6.80;;;6.07;;
48203;SDS011;33994;50.998;5.864;2023-05-20T15:20:59;10.85;;;6.00;;
48203;SDS011;33994;50.998;5.864;2023-05-20T15:24:02;11.93;;;6.78;;
48203;SDS011;33994;50.998;5.864;2023-05-20T15:27:06;14.38;;;7.55;;
48203;SDS011;33994;50.998;5.864;2023-05-20T15:30:10;10.25;;;6.70;;
48203;SDS011;33994;50.998;5.864;2023-05-20T15:33:14;9.98;;;6.68;;
48203;SDS011;33994;50.998;5.864;2023-05-20T15:36:18;11.88;;;5.82;;
48203;SDS011;33994;50.998;5.864;2023-05-20T15:39:21;8.40;;;6.20;;
48203;SDS011;33994;50.998;5.864;2023-05-20T15:42:25;15.25;;;6.75;;
48203;SDS011;33994;50.998;5.864;2023-05-20T15:45:29;11.55;;;6.95;;
48203;SDS011;33994;50.998;5.864;2023-05-20T15:48:34;9.23;;;5.70;;
48203;SDS011;33994;50.998;5.864;2023-05-20T15:51:37;9.02;;;5.88;;
48203;SDS011;33994;50.998;5.864;2023-05-20T15:54:40;7.65;;;4.88;;
48203;SDS011;33994;50.998;5.864;2023-05-20T15:57:44;7.72;;;5.40;;
48203;SDS011;33994;50.998;5.864;2023-05-20T16:00:48;8.60;;;4.68;;
48203;SDS011;33994;50.998;5.864;2023-05-20T16:03:51;5.97;;;4.47;;
48203;SDS011;33994;50.998;5.864;2023-05-20T16:06:54;14.38;;;5.10;;
48203;SDS011;33994;50.998;5.864;2023-05-20T16:09:57;6.43;;;5.07;;
48203;SDS011;33994;50.998;5.864;2023-05-20T16:13:02;6.10;;;4.32;;
48203;SDS011;33994;50.998;5.864;2023-05-20T16:16:05;6.72;;;4.18;;
48203;SDS011;33994;50.998;5.864;2023-05-20T16:19:09;8.07;;;4.32;;
48203;SDS011;33994;50.998;5.864;2023-05-20T16:22:12;5.78;;;4.57;;
48203;SDS011;33994;50.998;5.864;2023-05-20T16:25:16;4.63;;;3.72;;
48203;SDS011;33994;50.998;5.864;2023-05-20T16:28:20;6.00;;;4.30;;
48203;SDS011;33994;50.998;5.864;2023-05-20T16:31:23;5.80;;;4.43;;
48203;SDS011;33994;50.998;5.864;2023-05-20T16:34:27;7.70;;;4.65;;
48203;SDS011;33994;50.998;5.864;2023-05-20T16:37:30;8.35;;;4.95;;
48203;SDS011;33994;50.998;5.864;2023-05-20T16:40:33;7.90;;;4.63;;
48203;SDS011;33994;50.998;5.864;2023-05-20T16:43:37;5.93;;;4.53;;
48203;SDS011;33994;50.998;5.864;2023-05-20T16:46:40;7.03;;;4.75;;
48203;SDS011;33994;50.998;5.864;2023-05-20T16:49:44;6.15;;;4.32;;
48203;SDS011;33994;50.998;5.864;2023-05-20T16:52:47;6.57;;;4.68;;
48203;SDS011;33994;50.998;5.864;2023-05-20T16:55:50;9.98;;;4.00;;
48203;SDS011;33994;50.998;5.864;2023-05-20T16:58:55;6.95;;;4.50;;
48203;SDS011;33994;50.998;5.864;2023-05-20T17:01:58;7.43;;;4.32;;
48203;SDS011;33994;50.998;5.864;2023-05-20T17:05:01;9.30;;;4.97;;
48203;SDS011;33994;50.998;5.864;2023-05-20T17:08:04;9.07;;;5.38;;
48203;SDS011;33994;50.998;5.864;2023-05-20T17:11:07;8.48;;;4.72;;
48203;SDS011;33994;50.998;5.864;2023-05-20T17:14:12;5.63;;;4.43;;
48203;SDS011;33994;50.998;5.864;2023-05-20T17:17:15;4.80;;;4.03;;
48203;SDS011;33994;50.998;5.864;2023-05-20T17:20:18;11.27;;;5.25;;
48203;SDS011;33994;50.998;5.864;2023-05-20T17:23:22;7.18;;;5.15;;
48203;SDS011;33994;50.998;5.864;2023-05-20T17:26:25;9.68;;;4.30;;
48203;SDS011;33994;50.998;5.864;2023-05-20T17:29:29;5.65;;;4.28;;
48203;SDS011;33994;50.998;5.864;2023-05-20T17:32:33;5.13;;;3.97;;
48203;SDS011;33994;50.998;5.864;2023-05-20T17:35:36;5.35;;;4.25;;
48203;SDS011;33994;50.998;5.864;2023-05-20T17:38:39;8.00;;;4.35;;
48203;SDS011;33994;50.998;5.864;2023-05-20T17:41:43;5.95;;;3.63;;
48203;SDS011;33994;50.998;5.864;2023-05-20T17:44:47;9.35;;;5.20;;
48203;SDS011;33994;50.998;5.864;2023-05-20T17:47:51;6.80;;;4.68;;
48203;SDS011;33994;50.998;5.864;2023-05-20T17:50:54;7.78;;;4.53;;
48203;SDS011;33994;50.998;5.864;2023-05-20T17:53:57;6.05;;;4.28;;
48203;SDS011;33994;50.998;5.864;2023-05-20T17:57:00;5.35;;;4.00;;
48203;SDS011;33994;50.998;5.864;2023-05-20T18:00:05;5.90;;;4.90;;
48203;SDS011;33994;50.998;5.864;2023-05-20T18:03:09;6.53;;;4.35;;
48203;SDS011;33994;50.998;5.864;2023-05-20T18:06:12;4.95;;;3.72;;
48203;SDS011;33994;50.998;5.864;2023-05-20T18:09:15;9.80;;;4.28;;
48203;SDS011;33994;50.998;5.864;2023-05-20T18:12:19;6.43;;;4.70;;
48203;SDS011;33994;50.998;5.864;2023-05-20T18:15:23;5.43;;;4.43;;
48203;SDS011;33994;50.998;5.864;2023-05-20T18:18:26;5.40;;;4.28;;
48203;SDS011;33994;50.998;5.864;2023-05-20T18:21:29;6.78;;;5.07;;
48203;SDS011;33994;50.998;5.864;2023-05-20T18:24:33;5.35;;;3.95;;
48203;SDS011;33994;50.998;5.864;2023-05-20T18:27:36;7.47;;;4.85;;
48203;SDS011;33994;50.998;5.864;2023-05-20T18:30:40;6.35;;;4.90;;